VQBOS LICD-LGIR
Flight info
| Callsign | VQBOS |
|---|---|
| Flight time | 1h 33m |
| Altitude | 31000 |
| Route | N0460F310 AGMUB P868 DOKIK P623 GZO M978 DEMAG UM978 OTREX |
| Aircraft | B738/M-Q/L |
Departure
| Time | 2026-05-05 13:12 |
|---|---|
| Airport | Lampedusa Airport (LICD) |
Arrival
| Time | 2026-05-05 14:45 |
|---|---|
| Airport | Heraklion International Nikos Kazantzakis Airport (LGIR) |
| Time | Latitude | Longitude | Altitude | Speed | Heading |
|---|---|---|---|---|---|
| 2026-05-05 12:54 | 35.50030 | 12.62034 | 57 ft | 0 kts | 50° |
| 2026-05-05 13:07 | 35.50032 | 12.62040 | 57 ft | 5 kts | 67° |
| 2026-05-05 13:08 | 35.50012 | 12.62068 | 55 ft | 5 kts | 186° |
| 2026-05-05 13:08 | 35.49987 | 12.62036 | 55 ft | 6 kts | 230° |
| 2026-05-05 13:08 | 35.49965 | 12.61924 | 51 ft | 18 kts | 260° |
| 2026-05-05 13:08 | 35.49942 | 12.61766 | 57 ft | 19 kts | 260° |
| 2026-05-05 13:09 | 35.49922 | 12.61618 | 51 ft | 16 kts | 250° |
| 2026-05-05 13:09 | 35.49827 | 12.61624 | 51 ft | 16 kts | 151° |
| 2026-05-05 13:09 | 35.49753 | 12.61592 | 51 ft | 13 kts | 253° |
| 2026-05-05 13:09 | 35.49733 | 12.61428 | 47 ft | 28 kts | 262° |
| 2026-05-05 13:10 | 35.49703 | 12.61178 | 46 ft | 30 kts | 261° |
| 2026-05-05 13:10 | 35.49669 | 12.60973 | 45 ft | 18 kts | 256° |
| 2026-05-05 13:10 | 35.49654 | 12.60862 | 44 ft | 7 kts | 288° |
| 2026-05-05 13:10 | 35.49683 | 12.60854 | 44 ft | 3 kts | 56° |
| 2026-05-05 13:11 | 35.49681 | 12.60881 | 44 ft | 3 kts | 96° |
| 2026-05-05 13:11 | 35.49687 | 12.60996 | 43 ft | 31 kts | 83° |
| 2026-05-05 13:11 | 35.49762 | 12.61568 | 51 ft | 112 kts | 79° |
| 2026-05-05 13:11 | 35.49953 | 12.62826 | 211 ft | 178 kts | 82° |
| 2026-05-05 13:12 | 35.50178 | 12.64345 | 1090 ft | 187 kts | 85° |
| 2026-05-05 13:12 | 35.50380 | 12.65976 | 1839 ft | 197 kts | 86° |
| 2026-05-05 13:12 | 35.50592 | 12.67684 | 2493 ft | 212 kts | 84° |
| 2026-05-05 13:12 | 35.50836 | 12.69511 | 3120 ft | 219 kts | 83° |
| 2026-05-05 13:13 | 35.51299 | 12.71388 | 3550 ft | 240 kts | 71° |
| 2026-05-05 13:13 | 35.51981 | 12.73293 | 4217 ft | 245 kts | 69° |
| 2026-05-05 13:13 | 35.52701 | 12.75207 | 4954 ft | 248 kts | 68° |
| 2026-05-05 13:13 | 35.53425 | 12.77129 | 5710 ft | 250 kts | 68° |
| 2026-05-05 13:14 | 35.54166 | 12.79124 | 6279 ft | 265 kts | 68° |
| 2026-05-05 13:14 | 35.54930 | 12.81203 | 6978 ft | 274 kts | 68° |
| 2026-05-05 13:14 | 35.55720 | 12.83363 | 7795 ft | 280 kts | 68° |
| 2026-05-05 13:14 | 35.56524 | 12.85578 | 8594 ft | 287 kts | 68° |
| 2026-05-05 13:15 | 35.57340 | 12.87831 | 9450 ft | 292 kts | 68° |
| 2026-05-05 13:15 | 35.58172 | 12.90143 | 10204 ft | 299 kts | 67° |
| 2026-05-05 13:15 | 35.59033 | 12.92545 | 10662 ft | 319 kts | 67° |
| 2026-05-05 13:15 | 35.59963 | 12.95145 | 10830 ft | 345 kts | 67° |
| 2026-05-05 13:16 | 35.60953 | 12.97920 | 11248 ft | 361 kts | 67° |
| 2026-05-05 13:16 | 35.61970 | 13.00776 | 11986 ft | 367 kts | 66° |
| 2026-05-05 13:16 | 35.63001 | 13.03671 | 12731 ft | 372 kts | 66° |
| 2026-05-05 13:16 | 35.64048 | 13.06615 | 13466 ft | 378 kts | 66° |
| 2026-05-05 13:17 | 35.65109 | 13.09605 | 14136 ft | 385 kts | 66° |
| 2026-05-05 13:17 | 35.66189 | 13.12650 | 14821 ft | 391 kts | 66° |
| 2026-05-05 13:17 | 35.67272 | 13.15708 | 15559 ft | 395 kts | 66° |
| 2026-05-05 13:17 | 35.68372 | 13.18817 | 16295 ft | 399 kts | 66° |
| 2026-05-05 13:18 | 35.69488 | 13.21975 | 16970 ft | 405 kts | 65° |
| 2026-05-05 13:18 | 35.70621 | 13.25183 | 17663 ft | 411 kts | 65° |
| 2026-05-05 13:18 | 35.71769 | 13.28440 | 18323 ft | 416 kts | 65° |
| 2026-05-05 13:18 | 35.72929 | 13.31731 | 18942 ft | 421 kts | 65° |
| 2026-05-05 13:19 | 35.74082 | 13.35009 | 19569 ft | 424 kts | 65° |
| 2026-05-05 13:19 | 35.75256 | 13.38352 | 20237 ft | 427 kts | 65° |
| 2026-05-05 13:19 | 35.76443 | 13.41731 | 20861 ft | 430 kts | 65° |
| 2026-05-05 13:19 | 35.77633 | 13.45126 | 21463 ft | 434 kts | 65° |
| 2026-05-05 13:20 | 35.78836 | 13.48560 | 22073 ft | 437 kts | 65° |
| 2026-05-05 13:20 | 35.80044 | 13.52012 | 22654 ft | 441 kts | 65° |
| 2026-05-05 13:20 | 35.81264 | 13.55504 | 23221 ft | 445 kts | 65° |
| 2026-05-05 13:20 | 35.82492 | 13.59022 | 23748 ft | 448 kts | 65° |
| 2026-05-05 13:21 | 35.83727 | 13.62563 | 24213 ft | 452 kts | 65° |
| 2026-05-05 13:21 | 35.84971 | 13.66135 | 24677 ft | 455 kts | 65° |
| 2026-05-05 13:21 | 35.86208 | 13.69690 | 25134 ft | 458 kts | 65° |
| 2026-05-05 13:21 | 35.87468 | 13.73316 | 25587 ft | 461 kts | 65° |
| 2026-05-05 13:22 | 35.88732 | 13.76957 | 26032 ft | 463 kts | 65° |
| 2026-05-05 13:22 | 35.90004 | 13.80626 | 26472 ft | 466 kts | 65° |
| 2026-05-05 13:22 | 35.91283 | 13.84320 | 26888 ft | 469 kts | 65° |
| 2026-05-05 13:22 | 35.92570 | 13.88043 | 27303 ft | 472 kts | 65° |
| 2026-05-05 13:23 | 35.93863 | 13.91785 | 27703 ft | 475 kts | 65° |
| 2026-05-05 13:23 | 35.95143 | 13.95498 | 28098 ft | 478 kts | 65° |
| 2026-05-05 13:23 | 35.96452 | 13.99297 | 28489 ft | 481 kts | 65° |
| 2026-05-05 13:23 | 35.97763 | 14.03109 | 28870 ft | 483 kts | 65° |
| 2026-05-05 13:24 | 35.99080 | 14.06941 | 29304 ft | 484 kts | 65° |
| 2026-05-05 13:24 | 36.00395 | 14.10771 | 29888 ft | 482 kts | 65° |
| 2026-05-05 13:24 | 36.01696 | 14.14569 | 30463 ft | 479 kts | 65° |
| 2026-05-05 13:24 | 36.02807 | 14.18443 | 30904 ft | 480 kts | 73° |
| 2026-05-05 13:25 | 36.03456 | 14.22511 | 31084 ft | 485 kts | 82° |
| 2026-05-05 13:25 | 36.03602 | 14.26690 | 31094 ft | 490 kts | 92° |
| 2026-05-05 13:25 | 36.03174 | 14.35069 | 31098 ft | 490 kts | 94° |
| 2026-05-05 13:26 | 36.02692 | 14.43445 | 31096 ft | 487 kts | 93° |
| 2026-05-05 13:26 | 36.02258 | 14.51802 | 31100 ft | 486 kts | 93° |
| 2026-05-05 13:27 | 36.01852 | 14.60126 | 31102 ft | 485 kts | 93° |
| 2026-05-05 13:27 | 36.01447 | 14.68454 | 31100 ft | 486 kts | 93° |
| 2026-05-05 13:28 | 36.01034 | 14.76795 | 31097 ft | 487 kts | 93° |
| 2026-05-05 13:28 | 36.00611 | 14.85160 | 31099 ft | 488 kts | 93° |
| 2026-05-05 13:29 | 36.00181 | 14.93537 | 31097 ft | 489 kts | 93° |
| 2026-05-05 13:29 | 35.99745 | 15.01928 | 31099 ft | 490 kts | 93° |
| 2026-05-05 13:30 | 35.99303 | 15.10333 | 31097 ft | 490 kts | 93° |
| 2026-05-05 13:30 | 35.98857 | 15.18683 | 31099 ft | 490 kts | 93° |
| 2026-05-05 13:31 | 35.98403 | 15.27083 | 31101 ft | 490 kts | 93° |
| 2026-05-05 13:31 | 35.97943 | 15.35482 | 31103 ft | 490 kts | 93° |
| 2026-05-05 13:32 | 35.97477 | 15.43878 | 31104 ft | 489 kts | 93° |
| 2026-05-05 13:32 | 35.97007 | 15.52253 | 31105 ft | 489 kts | 93° |
| 2026-05-05 13:33 | 35.96532 | 15.60626 | 31106 ft | 488 kts | 93° |
| 2026-05-05 13:33 | 35.96052 | 15.68952 | 31107 ft | 488 kts | 93° |
| 2026-05-05 13:34 | 35.95562 | 15.77326 | 31110 ft | 488 kts | 93° |
| 2026-05-05 13:34 | 35.95069 | 15.85686 | 31108 ft | 488 kts | 93° |
| 2026-05-05 13:35 | 35.94572 | 15.93998 | 31110 ft | 488 kts | 93° |
| 2026-05-05 13:35 | 35.94068 | 16.02354 | 31113 ft | 488 kts | 93° |
| 2026-05-05 13:36 | 35.93557 | 16.10716 | 31117 ft | 488 kts | 93° |
| 2026-05-05 13:36 | 35.93041 | 16.19061 | 31116 ft | 488 kts | 93° |
| 2026-05-05 13:37 | 35.92518 | 16.27428 | 31117 ft | 488 kts | 93° |
| 2026-05-05 13:37 | 35.91991 | 16.35778 | 31111 ft | 488 kts | 93° |
| 2026-05-05 13:38 | 35.91460 | 16.44089 | 31125 ft | 488 kts | 93° |
| 2026-05-05 13:38 | 35.90919 | 16.52453 | 31117 ft | 488 kts | 93° |
| 2026-05-05 13:39 | 35.90374 | 16.60815 | 31124 ft | 488 kts | 93° |
| 2026-05-05 13:39 | 35.89822 | 16.69170 | 31123 ft | 488 kts | 93° |
| 2026-05-05 13:40 | 35.89269 | 16.77473 | 31116 ft | 489 kts | 93° |
| 2026-05-05 13:40 | 35.88801 | 16.84429 | 31126 ft | 489 kts | 93° |
| 2026-05-05 13:41 | 35.88138 | 16.94178 | 31130 ft | 489 kts | 93° |
| 2026-05-05 13:41 | 35.87660 | 17.01138 | 31136 ft | 492 kts | 93° |
| 2026-05-05 13:42 | 35.87074 | 17.09604 | 31131 ft | 498 kts | 93° |
| 2026-05-05 13:42 | 35.86479 | 17.18118 | 31134 ft | 498 kts | 93° |
| 2026-05-05 13:43 | 35.85878 | 17.26621 | 31132 ft | 498 kts | 93° |
| 2026-05-05 13:43 | 35.85271 | 17.35134 | 31135 ft | 498 kts | 93° |
| 2026-05-05 13:44 | 35.84659 | 17.43635 | 31133 ft | 497 kts | 93° |
| 2026-05-05 13:44 | 35.84041 | 17.52123 | 31138 ft | 497 kts | 93° |
| 2026-05-05 13:45 | 35.83418 | 17.60610 | 31136 ft | 497 kts | 93° |
| 2026-05-05 13:45 | 35.82793 | 17.69036 | 31129 ft | 496 kts | 93° |
| 2026-05-05 13:46 | 35.82158 | 17.77523 | 31132 ft | 496 kts | 93° |
| 2026-05-05 13:46 | 35.81518 | 17.85993 | 31140 ft | 496 kts | 93° |
| 2026-05-05 13:47 | 35.80872 | 17.94455 | 31142 ft | 496 kts | 93° |
| 2026-05-05 13:47 | 35.80224 | 18.02875 | 31145 ft | 496 kts | 93° |
| 2026-05-05 13:48 | 35.79566 | 18.11346 | 31140 ft | 496 kts | 93° |
| 2026-05-05 13:48 | 35.78903 | 18.19818 | 31142 ft | 496 kts | 94° |
| 2026-05-05 13:49 | 35.78239 | 18.28243 | 31145 ft | 496 kts | 94° |
| 2026-05-05 13:49 | 35.77569 | 18.36710 | 31146 ft | 496 kts | 94° |
| 2026-05-05 13:50 | 35.76893 | 18.45182 | 31148 ft | 496 kts | 94° |
| 2026-05-05 13:50 | 35.76211 | 18.53647 | 31143 ft | 496 kts | 94° |
| 2026-05-05 13:51 | 35.75524 | 18.62103 | 31150 ft | 496 kts | 94° |
| 2026-05-05 13:51 | 35.74830 | 18.70565 | 31149 ft | 496 kts | 94° |
| 2026-05-05 13:52 | 35.74135 | 18.78961 | 31147 ft | 495 kts | 94° |
| 2026-05-05 13:52 | 35.73432 | 18.87395 | 31147 ft | 495 kts | 94° |
| 2026-05-05 13:53 | 35.72723 | 18.95824 | 31146 ft | 494 kts | 94° |
| 2026-05-05 13:53 | 35.72007 | 19.04253 | 31143 ft | 494 kts | 94° |
| 2026-05-05 13:54 | 35.71289 | 19.12651 | 31147 ft | 493 kts | 94° |
| 2026-05-05 13:54 | 35.70565 | 19.21043 | 31148 ft | 492 kts | 94° |
| 2026-05-05 13:55 | 35.69841 | 19.29364 | 31149 ft | 492 kts | 94° |
| 2026-05-05 13:55 | 35.69108 | 19.37728 | 31153 ft | 491 kts | 94° |
| 2026-05-05 13:56 | 35.68369 | 19.46089 | 31155 ft | 491 kts | 94° |
| 2026-05-05 13:56 | 35.67624 | 19.54457 | 31154 ft | 491 kts | 94° |
| 2026-05-05 13:57 | 35.66874 | 19.62810 | 31151 ft | 491 kts | 94° |
| 2026-05-05 13:57 | 35.66119 | 19.71158 | 31154 ft | 491 kts | 94° |
| 2026-05-05 13:58 | 35.65362 | 19.79467 | 31152 ft | 491 kts | 94° |
| 2026-05-05 13:58 | 35.64569 | 19.87820 | 31153 ft | 492 kts | 94° |
| 2026-05-05 13:59 | 35.63330 | 20.00378 | 31153 ft | 493 kts | 94° |
| 2026-05-05 14:00 | 35.62229 | 20.11521 | 31154 ft | 493 kts | 94° |
| 2026-05-05 14:00 | 35.61261 | 20.21260 | 31150 ft | 494 kts | 94° |
| 2026-05-05 14:01 | 35.60423 | 20.29644 | 31151 ft | 494 kts | 94° |
| 2026-05-05 14:01 | 35.59590 | 20.38022 | 31150 ft | 494 kts | 94° |
| 2026-05-05 14:02 | 35.58752 | 20.46405 | 31154 ft | 494 kts | 94° |
| 2026-05-05 14:02 | 35.57908 | 20.54783 | 31150 ft | 494 kts | 94° |
| 2026-05-05 14:03 | 35.57058 | 20.63161 | 31154 ft | 493 kts | 94° |
| 2026-05-05 14:03 | 35.56209 | 20.71465 | 31154 ft | 493 kts | 94° |
| 2026-05-05 14:04 | 35.55371 | 20.79830 | 31152 ft | 493 kts | 93° |
| 2026-05-05 14:04 | 35.54543 | 20.88201 | 31151 ft | 493 kts | 93° |
| 2026-05-05 14:05 | 35.53713 | 20.96519 | 31150 ft | 492 kts | 93° |
| 2026-05-05 14:05 | 35.52871 | 21.04859 | 31147 ft | 492 kts | 93° |
| 2026-05-05 14:06 | 35.52024 | 21.13196 | 31144 ft | 492 kts | 93° |
| 2026-05-05 14:06 | 35.51162 | 21.21539 | 31143 ft | 492 kts | 94° |
| 2026-05-05 14:07 | 35.50288 | 21.29824 | 31145 ft | 492 kts | 94° |
| 2026-05-05 14:07 | 35.49402 | 21.38169 | 31142 ft | 493 kts | 94° |
| 2026-05-05 14:08 | 35.48513 | 21.46518 | 31142 ft | 493 kts | 94° |
| 2026-05-05 14:08 | 35.47618 | 21.54861 | 31142 ft | 493 kts | 94° |
| 2026-05-05 14:09 | 35.46718 | 21.63209 | 31140 ft | 494 kts | 94° |
| 2026-05-05 14:09 | 35.45810 | 21.71568 | 31139 ft | 494 kts | 94° |
| 2026-05-05 14:10 | 35.44896 | 21.79930 | 31140 ft | 494 kts | 94° |
| 2026-05-05 14:10 | 35.43982 | 21.88233 | 31136 ft | 495 kts | 94° |
| 2026-05-05 14:11 | 35.43054 | 21.96613 | 31139 ft | 495 kts | 94° |
| 2026-05-05 14:11 | 35.42121 | 22.04985 | 31134 ft | 495 kts | 94° |
| 2026-05-05 14:12 | 35.41182 | 22.13358 | 31137 ft | 495 kts | 94° |
| 2026-05-05 14:12 | 35.40237 | 22.21733 | 31130 ft | 496 kts | 94° |
| 2026-05-05 14:13 | 35.39286 | 22.30109 | 31131 ft | 496 kts | 94° |
| 2026-05-05 14:13 | 35.38334 | 22.38434 | 31130 ft | 496 kts | 94° |
| 2026-05-05 14:14 | 35.37370 | 22.46814 | 31132 ft | 496 kts | 94° |
| 2026-05-05 14:14 | 35.36401 | 22.55189 | 31121 ft | 497 kts | 94° |
| 2026-05-05 14:15 | 35.35426 | 22.63573 | 31127 ft | 497 kts | 94° |
| 2026-05-05 14:15 | 35.34443 | 22.71967 | 31123 ft | 497 kts | 94° |
| 2026-05-05 14:16 | 35.33456 | 22.80347 | 31125 ft | 498 kts | 94° |
| 2026-05-05 14:16 | 35.32461 | 22.88748 | 31127 ft | 498 kts | 94° |
| 2026-05-05 14:17 | 35.31467 | 22.97089 | 31123 ft | 498 kts | 94° |
| 2026-05-05 14:17 | 35.30458 | 23.05497 | 31123 ft | 499 kts | 94° |
| 2026-05-05 14:18 | 35.29444 | 23.13903 | 31120 ft | 499 kts | 94° |
| 2026-05-05 14:18 | 35.28424 | 23.22306 | 31119 ft | 499 kts | 94° |
| 2026-05-05 14:19 | 35.27397 | 23.30718 | 31117 ft | 500 kts | 95° |
| 2026-05-05 14:19 | 35.26371 | 23.39074 | 31107 ft | 493 kts | 95° |
| 2026-05-05 14:20 | 35.25864 | 23.43144 | 31012 ft | 475 kts | 94° |
| 2026-05-05 14:20 | 35.25371 | 23.47108 | 30506 ft | 469 kts | 94° |
| 2026-05-05 14:20 | 35.24885 | 23.51042 | 30048 ft | 464 kts | 94° |
| 2026-05-05 14:20 | 35.24404 | 23.54921 | 29502 ft | 458 kts | 94° |
| 2026-05-05 14:21 | 35.23928 | 23.58764 | 28995 ft | 454 kts | 94° |
| 2026-05-05 14:21 | 35.23453 | 23.62574 | 28488 ft | 451 kts | 94° |
| 2026-05-05 14:21 | 35.22979 | 23.66364 | 27994 ft | 451 kts | 94° |
| 2026-05-05 14:21 | 35.22581 | 23.70162 | 27512 ft | 449 kts | 90° |
| 2026-05-05 14:22 | 35.22334 | 23.73974 | 27030 ft | 448 kts | 88° |
| 2026-05-05 14:22 | 35.22148 | 23.77781 | 26557 ft | 448 kts | 88° |
| 2026-05-05 14:22 | 35.21978 | 23.81589 | 26102 ft | 448 kts | 88° |
| 2026-05-05 14:22 | 35.21804 | 23.85384 | 25697 ft | 447 kts | 88° |
| 2026-05-05 14:23 | 35.21621 | 23.89135 | 25293 ft | 447 kts | 88° |
| 2026-05-05 14:23 | 35.21425 | 23.92931 | 24892 ft | 446 kts | 88° |
| 2026-05-05 14:23 | 35.21222 | 23.96712 | 24500 ft | 445 kts | 88° |
| 2026-05-05 14:23 | 35.21015 | 24.00487 | 24111 ft | 444 kts | 88° |
| 2026-05-05 14:24 | 35.20805 | 24.04256 | 23734 ft | 442 kts | 88° |
| 2026-05-05 14:24 | 35.20595 | 24.08002 | 23280 ft | 441 kts | 89° |
| 2026-05-05 14:24 | 35.20385 | 24.11727 | 22797 ft | 436 kts | 89° |
| 2026-05-05 14:24 | 35.20176 | 24.15397 | 22387 ft | 429 kts | 89° |
| 2026-05-05 14:25 | 35.19969 | 24.19016 | 21946 ft | 425 kts | 89° |
| 2026-05-05 14:25 | 35.19833 | 24.21397 | 21653 ft | 422 kts | 89° |
| 2026-05-05 14:25 | 35.19630 | 24.24963 | 21224 ft | 419 kts | 89° |
| 2026-05-05 14:25 | 35.19427 | 24.28500 | 20799 ft | 415 kts | 89° |
| 2026-05-05 14:26 | 35.19225 | 24.32018 | 20384 ft | 413 kts | 89° |
| 2026-05-05 14:26 | 35.19023 | 24.35509 | 19977 ft | 410 kts | 90° |
| 2026-05-05 14:26 | 35.18819 | 24.38978 | 19565 ft | 408 kts | 90° |
| 2026-05-05 14:26 | 35.18618 | 24.42423 | 19171 ft | 406 kts | 90° |
| 2026-05-05 14:27 | 35.18417 | 24.45854 | 18777 ft | 404 kts | 90° |
| 2026-05-05 14:27 | 35.18216 | 24.49263 | 18382 ft | 401 kts | 90° |
| 2026-05-05 14:27 | 35.18012 | 24.52651 | 17935 ft | 398 kts | 90° |
| 2026-05-05 14:27 | 35.17812 | 24.56021 | 17496 ft | 396 kts | 90° |
| 2026-05-05 14:28 | 35.17615 | 24.59335 | 17064 ft | 393 kts | 90° |
| 2026-05-05 14:28 | 35.17415 | 24.62654 | 16649 ft | 388 kts | 91° |
| 2026-05-05 14:28 | 35.17215 | 24.65911 | 16249 ft | 381 kts | 91° |
| 2026-05-05 14:28 | 35.17019 | 24.69111 | 15840 ft | 374 kts | 89° |
| 2026-05-05 14:29 | 35.17217 | 24.72237 | 15445 ft | 362 kts | 72° |
| 2026-05-05 14:29 | 35.18054 | 24.75045 | 15050 ft | 352 kts | 59° |
| 2026-05-05 14:29 | 35.19312 | 24.77568 | 14644 ft | 345 kts | 52° |
| 2026-05-05 14:29 | 35.20521 | 24.80092 | 14243 ft | 344 kts | 57° |
| 2026-05-05 14:30 | 35.21613 | 24.82684 | 13839 ft | 340 kts | 59° |
| 2026-05-05 14:30 | 35.22664 | 24.85269 | 13380 ft | 338 kts | 59° |
| 2026-05-05 14:30 | 35.23705 | 24.87836 | 12919 ft | 336 kts | 59° |
| 2026-05-05 14:30 | 35.24753 | 24.90395 | 12457 ft | 334 kts | 59° |
| 2026-05-05 14:31 | 35.25782 | 24.92890 | 12007 ft | 331 kts | 59° |
| 2026-05-05 14:31 | 35.26822 | 24.95398 | 11575 ft | 329 kts | 59° |
| 2026-05-05 14:31 | 35.27859 | 24.97889 | 11132 ft | 328 kts | 59° |
| 2026-05-05 14:31 | 35.28894 | 25.00373 | 10679 ft | 325 kts | 59° |
| 2026-05-05 14:32 | 35.29920 | 25.02833 | 10264 ft | 323 kts | 60° |
| 2026-05-05 14:32 | 35.30938 | 25.05271 | 9819 ft | 321 kts | 60° |
| 2026-05-05 14:32 | 35.31951 | 25.07701 | 9351 ft | 319 kts | 60° |
| 2026-05-05 14:32 | 35.32949 | 25.10098 | 8864 ft | 309 kts | 60° |
| 2026-05-05 14:33 | 35.33906 | 25.12402 | 8471 ft | 298 kts | 60° |
| 2026-05-05 14:33 | 35.34820 | 25.14601 | 8068 ft | 287 kts | 60° |
| 2026-05-05 14:33 | 35.35708 | 25.16738 | 7690 ft | 276 kts | 59° |
| 2026-05-05 14:33 | 35.36564 | 25.18798 | 7307 ft | 267 kts | 59° |
| 2026-05-05 14:34 | 35.37392 | 25.20791 | 6980 ft | 258 kts | 59° |
| 2026-05-05 14:34 | 35.38191 | 25.22713 | 6658 ft | 249 kts | 59° |
| 2026-05-05 14:34 | 35.38964 | 25.24574 | 6326 ft | 242 kts | 59° |
| 2026-05-05 14:34 | 35.39537 | 25.26486 | 5962 ft | 241 kts | 81° |
| 2026-05-05 14:35 | 35.39450 | 25.28519 | 5668 ft | 236 kts | 94° |
| 2026-05-05 14:35 | 35.39229 | 25.30484 | 5364 ft | 230 kts | 95° |
| 2026-05-05 14:35 | 35.39006 | 25.32411 | 5031 ft | 227 kts | 95° |
| 2026-05-05 14:35 | 35.38792 | 25.34289 | 4709 ft | 223 kts | 95° |
| 2026-05-05 14:36 | 35.38577 | 25.36186 | 4382 ft | 221 kts | 95° |
| 2026-05-05 14:36 | 35.38369 | 25.38009 | 4070 ft | 217 kts | 95° |
| 2026-05-05 14:36 | 35.38166 | 25.39821 | 3741 ft | 213 kts | 95° |
| 2026-05-05 14:36 | 35.37965 | 25.41608 | 3404 ft | 209 kts | 95° |
| 2026-05-05 14:37 | 35.37772 | 25.43348 | 3064 ft | 203 kts | 95° |
| 2026-05-05 14:37 | 35.37583 | 25.45037 | 2757 ft | 197 kts | 98° |
| 2026-05-05 14:37 | 35.36983 | 25.46528 | 2395 ft | 198 kts | 136° |
| 2026-05-05 14:37 | 35.35807 | 25.47191 | 2292 ft | 181 kts | 180° |
| 2026-05-05 14:38 | 35.34658 | 25.46763 | 2286 ft | 173 kts | 223° |
| 2026-05-05 14:38 | 35.33783 | 25.45764 | 2247 ft | 172 kts | 229° |
| 2026-05-05 14:38 | 35.32935 | 25.44729 | 2168 ft | 172 kts | 230° |
| 2026-05-05 14:38 | 35.32103 | 25.43700 | 2045 ft | 167 kts | 233° |
| 2026-05-05 14:39 | 35.31717 | 25.42517 | 1996 ft | 141 kts | 275° |
| 2026-05-05 14:39 | 35.31753 | 25.41325 | 1987 ft | 138 kts | 281° |
| 2026-05-05 14:39 | 35.31905 | 25.40197 | 2013 ft | 130 kts | 285° |
| 2026-05-05 14:39 | 35.32099 | 25.39102 | 1955 ft | 136 kts | 288° |
| 2026-05-05 14:40 | 35.32394 | 25.37965 | 1880 ft | 141 kts | 290° |
| 2026-05-05 14:40 | 35.32675 | 25.36848 | 1753 ft | 135 kts | 286° |
| 2026-05-05 14:40 | 35.32860 | 25.35755 | 1704 ft | 126 kts | 285° |
| 2026-05-05 14:40 | 35.32989 | 25.34649 | 1574 ft | 135 kts | 281° |
| 2026-05-05 14:41 | 35.33091 | 25.33509 | 1418 ft | 133 kts | 279° |
| 2026-05-05 14:41 | 35.33164 | 25.32383 | 1288 ft | 132 kts | 277° |
| 2026-05-05 14:41 | 35.33193 | 25.31264 | 1147 ft | 129 kts | 273° |
| 2026-05-05 14:41 | 35.33201 | 25.30171 | 1037 ft | 127 kts | 272° |
| 2026-05-05 14:42 | 35.33157 | 25.29088 | 927 ft | 132 kts | 271° |
| 2026-05-05 14:42 | 35.33115 | 25.27946 | 837 ft | 135 kts | 274° |
| 2026-05-05 14:42 | 35.33162 | 25.26837 | 794 ft | 125 kts | 281° |
| 2026-05-05 14:42 | 35.33276 | 25.25797 | 777 ft | 123 kts | 282° |
| 2026-05-05 14:43 | 35.33400 | 25.24737 | 802 ft | 129 kts | 282° |
| 2026-05-05 14:43 | 35.33533 | 25.23638 | 809 ft | 130 kts | 282° |
| 2026-05-05 14:43 | 35.33678 | 25.22538 | 718 ft | 132 kts | 282° |
| 2026-05-05 14:43 | 35.33761 | 25.21427 | 506 ft | 130 kts | 277° |
| 2026-05-05 14:44 | 35.33817 | 25.20339 | 329 ft | 125 kts | 277° |
| 2026-05-05 14:44 | 35.33884 | 25.19281 | 180 ft | 127 kts | 279° |
| 2026-05-05 14:44 | 35.33959 | 25.18217 | 102 ft | 121 kts | 279° |
| 2026-05-05 14:44 | 35.34033 | 25.17262 | 91 ft | 99 kts | 276° |
| 2026-05-05 14:45 | 35.34065 | 25.16745 | 89 ft | 32 kts | 273° |
| 2026-05-05 14:45 | 35.34008 | 25.16680 | 92 ft | 13 kts | 131° |
| 2026-05-05 14:45 | 35.33969 | 25.16776 | 91 ft | 12 kts | 108° |
| 2026-05-05 14:45 | 35.33954 | 25.16881 | 90 ft | 13 kts | 96° |
| 2026-05-05 14:46 | 35.33947 | 25.16987 | 91 ft | 12 kts | 95° |
| 2026-05-05 14:46 | 35.33940 | 25.17089 | 89 ft | 12 kts | 95° |
| 2026-05-05 14:46 | 35.33933 | 25.17191 | 90 ft | 12 kts | 95° |
| 2026-05-05 14:46 | 35.33927 | 25.17289 | 90 ft | 11 kts | 95° |
| 2026-05-05 14:47 | 35.33920 | 25.17385 | 90 ft | 11 kts | 95° |
| 2026-05-05 14:47 | 35.33912 | 25.17478 | 90 ft | 11 kts | 95° |
| 2026-05-05 14:47 | 35.33906 | 25.17568 | 92 ft | 10 kts | 94° |
| 2026-05-05 14:47 | 35.33867 | 25.17625 | 90 ft | 10 kts | 180° |
| 2026-05-05 14:48 | 35.33847 | 25.17588 | 94 ft | 1 kts | 279° |
| 2026-05-05 14:48 | 35.33850 | 25.17573 | 90 ft | 2 kts | 283° |
| 2026-05-05 14:48 | 35.33859 | 25.17556 | 91 ft | 3 kts | 324° |
| 2026-05-05 14:48 | 35.33865 | 25.17549 | 93 ft | 0 kts | 320° |